sensor_id;sensor_type;location;lat;lon;timestamp;P1;durP1;ratioP1;P2;durP2;ratioP2
3881;SDS011;1956;53.482;10.238;2022-09-09T00:07:20;395.37;;;39.17;;
3881;SDS011;1956;53.482;10.238;2022-09-09T00:12:27;191.57;;;32.87;;
3881;SDS011;1956;53.482;10.238;2022-09-09T00:17:58;178.03;;;33.07;;
3881;SDS011;1956;53.482;10.238;2022-09-09T00:23:17;399.17;;;41.27;;
3881;SDS011;1956;53.482;10.238;2022-09-09T00:28:24;196.83;;;33.67;;
3881;SDS011;1956;53.482;10.238;2022-09-09T00:33:26;433.57;;;43.30;;
3881;SDS011;1956;53.482;10.238;2022-09-09T00:38:35;175.47;;;35.50;;
3881;SDS011;1956;53.482;10.238;2022-09-09T00:43:39;109.80;;;30.73;;
3881;SDS011;1956;53.482;10.238;2022-09-09T00:59:52;175.43;;;32.80;;
3881;SDS011;1956;53.482;10.238;2022-09-09T01:05:00;158.00;;;32.70;;
3881;SDS011;1956;53.482;10.238;2022-09-09T01:10:10;148.37;;;32.03;;
3881;SDS011;1956;53.482;10.238;2022-09-09T01:15:27;121.30;;;30.83;;
3881;SDS011;1956;53.482;10.238;2022-09-09T01:20:39;364.10;;;40.67;;
3881;SDS011;1956;53.482;10.238;2022-09-09T01:31:52;269.20;;;38.67;;
3881;SDS011;1956;53.482;10.238;2022-09-09T01:36:58;75.53;;;30.17;;
3881;SDS011;1956;53.482;10.238;2022-09-09T01:42:07;215.33;;;35.70;;
3881;SDS011;1956;53.482;10.238;2022-09-09T01:47:09;76.00;;;30.03;;
3881;SDS011;1956;53.482;10.238;2022-09-09T01:52:09;79.87;;;30.00;;
3881;SDS011;1956;53.482;10.238;2022-09-09T01:57:18;172.57;;;31.93;;
3881;SDS011;1956;53.482;10.238;2022-09-09T02:02:24;171.83;;;33.47;;
3881;SDS011;1956;53.482;10.238;2022-09-09T02:07:41;151.90;;;30.30;;
3881;SDS011;1956;53.482;10.238;2022-09-09T02:12:44;247.60;;;29.27;;
3881;SDS011;1956;53.482;10.238;2022-09-09T02:17:47;558.77;;;47.60;;
3881;SDS011;1956;53.482;10.238;2022-09-09T02:22:49;282.17;;;31.90;;
3881;SDS011;1956;53.482;10.238;2022-09-09T02:27:50;172.40;;;27.03;;
3881;SDS011;1956;53.482;10.238;2022-09-09T02:32:51;537.37;;;44.83;;
3881;SDS011;1956;53.482;10.238;2022-09-09T02:37:58;167.40;;;29.50;;
3881;SDS011;1956;53.482;10.238;2022-09-09T02:42:59;183.47;;;27.63;;
3881;SDS011;1956;53.482;10.238;2022-09-09T02:48:09;186.07;;;28.47;;
3881;SDS011;1956;53.482;10.238;2022-09-09T02:53:18;165.57;;;28.87;;
3881;SDS011;1956;53.482;10.238;2022-09-09T02:58:20;80.50;;;24.27;;
3881;SDS011;1956;53.482;10.238;2022-09-09T03:03:21;218.97;;;32.37;;
3881;SDS011;1956;53.482;10.238;2022-09-09T03:08:22;466.83;;;38.60;;
3881;SDS011;1956;53.482;10.238;2022-09-09T03:13:22;160.30;;;29.37;;
3881;SDS011;1956;53.482;10.238;2022-09-09T03:18:22;247.67;;;34.23;;
3881;SDS011;1956;53.482;10.238;2022-09-09T03:23:23;65.77;;;24.10;;
3881;SDS011;1956;53.482;10.238;2022-09-09T03:28:24;106.20;;;27.57;;
3881;SDS011;1956;53.482;10.238;2022-09-09T03:33:30;92.80;;;27.63;;
3881;SDS011;1956;53.482;10.238;2022-09-09T03:38:31;49.37;;;24.17;;
3881;SDS011;1956;53.482;10.238;2022-09-09T03:43:32;52.57;;;23.70;;
3881;SDS011;1956;53.482;10.238;2022-09-09T03:48:32;66.03;;;24.90;;
3881;SDS011;1956;53.482;10.238;2022-09-09T03:53:33;68.17;;;25.10;;
3881;SDS011;1956;53.482;10.238;2022-09-09T03:58:34;65.30;;;25.20;;
3881;SDS011;1956;53.482;10.238;2022-09-09T04:03:35;63.07;;;24.97;;
3881;SDS011;1956;53.482;10.238;2022-09-09T04:08:35;49.03;;;23.00;;
3881;SDS011;1956;53.482;10.238;2022-09-09T04:13:37;46.77;;;23.40;;
3881;SDS011;1956;53.482;10.238;2022-09-09T04:18:39;58.30;;;24.20;;
3881;SDS011;1956;53.482;10.238;2022-09-09T04:23:39;52.83;;;23.37;;
3881;SDS011;1956;53.482;10.238;2022-09-09T04:28:39;59.80;;;24.80;;
3881;SDS011;1956;53.482;10.238;2022-09-09T04:33:40;85.90;;;24.27;;
3881;SDS011;1956;53.482;10.238;2022-09-09T04:38:40;56.73;;;23.67;;
3881;SDS011;1956;53.482;10.238;2022-09-09T04:43:41;41.10;;;21.00;;
3881;SDS011;1956;53.482;10.238;2022-09-09T04:48:42;45.20;;;21.60;;
3881;SDS011;1956;53.482;10.238;2022-09-09T04:53:43;39.60;;;19.77;;
3881;SDS011;1956;53.482;10.238;2022-09-09T04:58:43;42.60;;;22.00;;
3881;SDS011;1956;53.482;10.238;2022-09-09T05:03:44;40.30;;;20.90;;
3881;SDS011;1956;53.482;10.238;2022-09-09T05:08:48;38.80;;;20.17;;
3881;SDS011;1956;53.482;10.238;2022-09-09T05:13:49;45.30;;;18.43;;
3881;SDS011;1956;53.482;10.238;2022-09-09T05:18:50;35.10;;;18.60;;
3881;SDS011;1956;53.482;10.238;2022-09-09T05:23:51;34.53;;;18.60;;
3881;SDS011;1956;53.482;10.238;2022-09-09T05:28:51;43.87;;;19.17;;
3881;SDS011;1956;53.482;10.238;2022-09-09T05:33:52;59.03;;;18.97;;
3881;SDS011;1956;53.482;10.238;2022-09-09T05:38:52;32.93;;;17.73;;
3881;SDS011;1956;53.482;10.238;2022-09-09T05:43:53;28.87;;;16.53;;
3881;SDS011;1956;53.482;10.238;2022-09-09T05:48:54;35.47;;;17.27;;
3881;SDS011;1956;53.482;10.238;2022-09-09T05:53:54;25.00;;;15.83;;
3881;SDS011;1956;53.482;10.238;2022-09-09T05:58:58;30.63;;;16.70;;
3881;SDS011;1956;53.482;10.238;2022-09-09T06:04:00;27.40;;;16.27;;
3881;SDS011;1956;53.482;10.238;2022-09-09T06:09:00;29.00;;;15.90;;
3881;SDS011;1956;53.482;10.238;2022-09-09T06:14:01;26.33;;;14.33;;
3881;SDS011;1956;53.482;10.238;2022-09-09T06:19:01;21.07;;;13.60;;
3881;SDS011;1956;53.482;10.238;2022-09-09T06:24:05;21.03;;;13.07;;
3881;SDS011;1956;53.482;10.238;2022-09-09T06:29:07;17.40;;;12.53;;
3881;SDS011;1956;53.482;10.238;2022-09-09T06:34:08;19.47;;;13.13;;
3881;SDS011;1956;53.482;10.238;2022-09-09T06:39:09;14.90;;;11.20;;
3881;SDS011;1956;53.482;10.238;2022-09-09T06:44:11;17.90;;;12.07;;
3881;SDS011;1956;53.482;10.238;2022-09-09T06:49:15;15.87;;;12.00;;
3881;SDS011;1956;53.482;10.238;2022-09-09T06:54:15;17.90;;;11.07;;
3881;SDS011;1956;53.482;10.238;2022-09-09T06:59:15;15.13;;;11.10;;
3881;SDS011;1956;53.482;10.238;2022-09-09T07:04:16;22.70;;;11.60;;
3881;SDS011;1956;53.482;10.238;2022-09-09T07:09:16;15.10;;;9.83;;
3881;SDS011;1956;53.482;10.238;2022-09-09T07:14:17;12.30;;;9.07;;
3881;SDS011;1956;53.482;10.238;2022-09-09T07:19:17;11.50;;;8.73;;
3881;SDS011;1956;53.482;10.238;2022-09-09T07:24:17;13.43;;;8.70;;
3881;SDS011;1956;53.482;10.238;2022-09-09T07:29:18;15.00;;;8.27;;
3881;SDS011;1956;53.482;10.238;2022-09-09T07:34:18;10.93;;;7.97;;
3881;SDS011;1956;53.482;10.238;2022-09-09T07:39:19;13.57;;;8.47;;
3881;SDS011;1956;53.482;10.238;2022-09-09T07:44:20;7.07;;;6.37;;
3881;SDS011;1956;53.482;10.238;2022-09-09T07:49:22;6.13;;;5.13;;
3881;SDS011;1956;53.482;10.238;2022-09-09T07:54:22;6.80;;;6.10;;
3881;SDS011;1956;53.482;10.238;2022-09-09T07:59:23;5.87;;;5.27;;
3881;SDS011;1956;53.482;10.238;2022-09-09T08:04:24;11.67;;;5.70;;
3881;SDS011;1956;53.482;10.238;2022-09-09T08:09:26;9.50;;;5.17;;
3881;SDS011;1956;53.482;10.238;2022-09-09T08:14:28;5.90;;;4.67;;
3881;SDS011;1956;53.482;10.238;2022-09-09T08:19:29;6.23;;;5.00;;
3881;SDS011;1956;53.482;10.238;2022-09-09T08:24:30;11.87;;;4.20;;
3881;SDS011;1956;53.482;10.238;2022-09-09T08:29:30;7.43;;;3.63;;
3881;SDS011;1956;53.482;10.238;2022-09-09T08:34:30;7.43;;;4.10;;
3881;SDS011;1956;53.482;10.238;2022-09-09T08:39:31;6.40;;;4.23;;
3881;SDS011;1956;53.482;10.238;2022-09-09T08:50:19;5.33;;;3.10;;
3881;SDS011;1956;53.482;10.238;2022-09-09T09:01:41;6.53;;;3.63;;
3881;SDS011;1956;53.482;10.238;2022-09-09T09:12:20;7.93;;;2.83;;
3881;SDS011;1956;53.482;10.238;2022-09-09T09:17:23;3.30;;;2.50;;
3881;SDS011;1956;53.482;10.238;2022-09-09T09:22:40;5.83;;;2.43;;
3881;SDS011;1956;53.482;10.238;2022-09-09T09:27:49;3.20;;;2.67;;
3881;SDS011;1956;53.482;10.238;2022-09-09T09:33:08;4.80;;;2.17;;
3881;SDS011;1956;53.482;10.238;2022-09-09T09:38:22;2.70;;;2.30;;
3881;SDS011;1956;53.482;10.238;2022-09-09T09:43:28;4.50;;;2.97;;
3881;SDS011;1956;53.482;10.238;2022-09-09T09:48:29;3.60;;;3.00;;
3881;SDS011;1956;53.482;10.238;2022-09-09T09:53:31;4.10;;;2.70;;
3881;SDS011;1956;53.482;10.238;2022-09-09T09:58:35;8.10;;;2.77;;
3881;SDS011;1956;53.482;10.238;2022-09-09T10:03:51;3.63;;;3.33;;
3881;SDS011;1956;53.482;10.238;2022-09-09T10:08:53;6.70;;;3.00;;
3881;SDS011;1956;53.482;10.238;2022-09-09T10:19:37;7.40;;;2.90;;
3881;SDS011;1956;53.482;10.238;2022-09-09T10:30:39;3.10;;;2.20;;
3881;SDS011;1956;53.482;10.238;2022-09-09T10:36:23;2.40;;;1.60;;
3881;SDS011;1956;53.482;10.238;2022-09-09T10:41:23;2.23;;;1.57;;
3881;SDS011;1956;53.482;10.238;2022-09-09T10:46:42;3.77;;;2.40;;
3881;SDS011;1956;53.482;10.238;2022-09-09T10:52:14;3.87;;;1.80;;
3881;SDS011;1956;53.482;10.238;2022-09-09T10:57:24;6.10;;;2.37;;
3881;SDS011;1956;53.482;10.238;2022-09-09T11:02:29;5.40;;;2.20;;
3881;SDS011;1956;53.482;10.238;2022-09-09T11:13:20;7.40;;;2.03;;
3881;SDS011;1956;53.482;10.238;2022-09-09T11:18:24;6.00;;;1.73;;
3881;SDS011;1956;53.482;10.238;2022-09-09T11:23:27;3.00;;;1.87;;
3881;SDS011;1956;53.482;10.238;2022-09-09T11:29:12;3.10;;;1.70;;
3881;SDS011;1956;53.482;10.238;2022-09-09T11:34:39;4.20;;;1.80;;
3881;SDS011;1956;53.482;10.238;2022-09-09T11:40:27;7.63;;;1.57;;
3881;SDS011;1956;53.482;10.238;2022-09-09T11:45:24;13.17;;;2.07;;
3881;SDS011;1956;53.482;10.238;2022-09-09T11:50:31;2.33;;;1.33;;
3881;SDS011;1956;53.482;10.238;2022-09-09T11:55:36;3.67;;;1.50;;
3881;SDS011;1956;53.482;10.238;2022-09-09T12:00:47;7.90;;;1.73;;
3881;SDS011;1956;53.482;10.238;2022-09-09T12:05:48;7.67;;;2.40;;
3881;SDS011;1956;53.482;10.238;2022-09-09T12:10:55;5.47;;;2.40;;
3881;SDS011;1956;53.482;10.238;2022-09-09T12:15:58;4.70;;;2.73;;
3881;SDS011;1956;53.482;10.238;2022-09-09T12:21:08;7.50;;;2.57;;
3881;SDS011;1956;53.482;10.238;2022-09-09T12:31:44;2.80;;;1.90;;
3881;SDS011;1956;53.482;10.238;2022-09-09T12:37:02;4.30;;;2.10;;
3881;SDS011;1956;53.482;10.238;2022-09-09T12:42:18;2.20;;;1.93;;
3881;SDS011;1956;53.482;10.238;2022-09-09T12:47:20;4.90;;;2.33;;
3881;SDS011;1956;53.482;10.238;2022-09-09T12:52:31;4.93;;;1.90;;
3881;SDS011;1956;53.482;10.238;2022-09-09T12:57:35;3.83;;;1.90;;
3881;SDS011;1956;53.482;10.238;2022-09-09T13:02:44;2.03;;;1.40;;
3881;SDS011;1956;53.482;10.238;2022-09-09T13:07:46;1.00;;;1.00;;
3881;SDS011;1956;53.482;10.238;2022-09-09T13:12:47;2.20;;;1.33;;
3881;SDS011;1956;53.482;10.238;2022-09-09T13:17:51;2.60;;;2.20;;
3881;SDS011;1956;53.482;10.238;2022-09-09T13:22:53;3.33;;;1.70;;
3881;SDS011;1956;53.482;10.238;2022-09-09T13:27:58;1.50;;;1.40;;
3881;SDS011;1956;53.482;10.238;2022-09-09T13:33:03;5.23;;;1.70;;
3881;SDS011;1956;53.482;10.238;2022-09-09T13:38:08;5.70;;;2.30;;
3881;SDS011;1956;53.482;10.238;2022-09-09T13:43:18;6.20;;;2.60;;
3881;SDS011;1956;53.482;10.238;2022-09-09T13:48:21;2.17;;;2.07;;
3881;SDS011;1956;53.482;10.238;2022-09-09T13:53:22;8.57;;;3.40;;
3881;SDS011;1956;53.482;10.238;2022-09-09T13:58:23;4.57;;;3.10;;
3881;SDS011;1956;53.482;10.238;2022-09-09T14:03:25;6.53;;;3.00;;
3881;SDS011;1956;53.482;10.238;2022-09-09T14:08:26;4.27;;;3.00;;
3881;SDS011;1956;53.482;10.238;2022-09-09T14:13:27;8.63;;;2.80;;
3881;SDS011;1956;53.482;10.238;2022-09-09T14:18:27;6.10;;;3.57;;
3881;SDS011;1956;53.482;10.238;2022-09-09T14:23:27;7.27;;;3.50;;
3881;SDS011;1956;53.482;10.238;2022-09-09T14:28:29;7.40;;;3.27;;
3881;SDS011;1956;53.482;10.238;2022-09-09T14:33:29;9.33;;;4.40;;
3881;SDS011;1956;53.482;10.238;2022-09-09T14:38:31;10.43;;;3.30;;
3881;SDS011;1956;53.482;10.238;2022-09-09T14:43:33;3.53;;;2.30;;
3881;SDS011;1956;53.482;10.238;2022-09-09T14:48:34;7.90;;;2.90;;
3881;SDS011;1956;53.482;10.238;2022-09-09T14:53:35;12.77;;;2.97;;
3881;SDS011;1956;53.482;10.238;2022-09-09T14:58:36;6.10;;;3.50;;
3881;SDS011;1956;53.482;10.238;2022-09-09T15:03:38;2.93;;;2.73;;
3881;SDS011;1956;53.482;10.238;2022-09-09T15:08:43;11.53;;;3.13;;
3881;SDS011;1956;53.482;10.238;2022-09-09T15:13:45;4.43;;;3.30;;
3881;SDS011;1956;53.482;10.238;2022-09-09T15:18:45;9.37;;;3.90;;
3881;SDS011;1956;53.482;10.238;2022-09-09T15:23:47;6.13;;;3.67;;
3881;SDS011;1956;53.482;10.238;2022-09-09T15:28:47;10.23;;;3.73;;
3881;SDS011;1956;53.482;10.238;2022-09-09T15:33:59;7.23;;;4.20;;
3881;SDS011;1956;53.482;10.238;2022-09-09T15:39:01;13.37;;;3.93;;
3881;SDS011;1956;53.482;10.238;2022-09-09T15:44:02;9.93;;;4.10;;
3881;SDS011;1956;53.482;10.238;2022-09-09T15:49:07;7.37;;;3.70;;
3881;SDS011;1956;53.482;10.238;2022-09-09T15:54:10;14.87;;;4.47;;
3881;SDS011;1956;53.482;10.238;2022-09-09T15:59:14;6.13;;;3.67;;
3881;SDS011;1956;53.482;10.238;2022-09-09T16:04:14;6.27;;;3.47;;
3881;SDS011;1956;53.482;10.238;2022-09-09T16:09:20;9.37;;;4.17;;
3881;SDS011;1956;53.482;10.238;2022-09-09T16:14:21;5.63;;;4.63;;
3881;SDS011;1956;53.482;10.238;2022-09-09T16:19:21;6.80;;;4.50;;
3881;SDS011;1956;53.482;10.238;2022-09-09T16:24:22;5.93;;;4.13;;
3881;SDS011;1956;53.482;10.238;2022-09-09T16:29:23;5.80;;;4.83;;
3881;SDS011;1956;53.482;10.238;2022-09-09T16:34:27;8.47;;;4.17;;
3881;SDS011;1956;53.482;10.238;2022-09-09T16:39:27;7.63;;;4.23;;
3881;SDS011;1956;53.482;10.238;2022-09-09T16:44:27;3.77;;;3.47;;
3881;SDS011;1956;53.482;10.238;2022-09-09T16:49:28;4.13;;;2.33;;
3881;SDS011;1956;53.482;10.238;2022-09-09T16:54:28;5.87;;;3.33;;
3881;SDS011;1956;53.482;10.238;2022-09-09T16:59:29;4.07;;;3.33;;
3881;SDS011;1956;53.482;10.238;2022-09-09T17:04:31;4.47;;;3.27;;
3881;SDS011;1956;53.482;10.238;2022-09-09T17:09:32;4.40;;;3.43;;
3881;SDS011;1956;53.482;10.238;2022-09-09T17:14:32;3.90;;;3.60;;
3881;SDS011;1956;53.482;10.238;2022-09-09T17:19:33;6.80;;;3.40;;
3881;SDS011;1956;53.482;10.238;2022-09-09T17:24:33;4.27;;;3.87;;
3881;SDS011;1956;53.482;10.238;2022-09-09T17:29:34;7.07;;;4.30;;
3881;SDS011;1956;53.482;10.238;2022-09-09T17:34:36;5.03;;;3.77;;
3881;SDS011;1956;53.482;10.238;2022-09-09T17:39:36;4.80;;;4.40;;
3881;SDS011;1956;53.482;10.238;2022-09-09T17:44:36;5.83;;;4.50;;
3881;SDS011;1956;53.482;10.238;2022-09-09T17:49:38;4.53;;;4.13;;
3881;SDS011;1956;53.482;10.238;2022-09-09T17:54:39;6.30;;;4.50;;
3881;SDS011;1956;53.482;10.238;2022-09-09T17:59:41;5.30;;;4.27;;
3881;SDS011;1956;53.482;10.238;2022-09-09T18:04:41;6.13;;;3.73;;
3881;SDS011;1956;53.482;10.238;2022-09-09T18:09:41;5.73;;;3.47;;
3881;SDS011;1956;53.482;10.238;2022-09-09T18:14:42;5.13;;;4.23;;
3881;SDS011;1956;53.482;10.238;2022-09-09T18:19:43;3.90;;;3.60;;
3881;SDS011;1956;53.482;10.238;2022-09-09T18:24:43;5.47;;;3.80;;
3881;SDS011;1956;53.482;10.238;2022-09-09T18:29:47;5.40;;;4.27;;
3881;SDS011;1956;53.482;10.238;2022-09-09T18:34:47;6.03;;;4.80;;
3881;SDS011;1956;53.482;10.238;2022-09-09T18:39:47;4.53;;;4.13;;
3881;SDS011;1956;53.482;10.238;2022-09-09T18:44:49;4.70;;;4.30;;
3881;SDS011;1956;53.482;10.238;2022-09-09T18:49:49;6.90;;;4.97;;
3881;SDS011;1956;53.482;10.238;2022-09-09T18:54:50;6.23;;;5.63;;
3881;SDS011;1956;53.482;10.238;2022-09-09T18:59:51;6.50;;;5.60;;
3881;SDS011;1956;53.482;10.238;2022-09-09T19:04:53;10.47;;;7.70;;
3881;SDS011;1956;53.482;10.238;2022-09-09T19:09:54;8.70;;;6.90;;
3881;SDS011;1956;53.482;10.238;2022-09-09T19:14:54;9.90;;;8.63;;
3881;SDS011;1956;53.482;10.238;2022-09-09T19:19:54;11.10;;;7.40;;
3881;SDS011;1956;53.482;10.238;2022-09-09T19:24:55;14.33;;;8.50;;
3881;SDS011;1956;53.482;10.238;2022-09-09T19:29:57;11.27;;;7.77;;
3881;SDS011;1956;53.482;10.238;2022-09-09T19:34:58;9.80;;;6.53;;
3881;SDS011;1956;53.482;10.238;2022-09-09T19:39:58;9.93;;;6.90;;
3881;SDS011;1956;53.482;10.238;2022-09-09T19:44:58;9.80;;;6.00;;
3881;SDS011;1956;53.482;10.238;2022-09-09T19:49:59;9.20;;;5.70;;
3881;SDS011;1956;53.482;10.238;2022-09-09T19:54:59;10.00;;;6.13;;
3881;SDS011;1956;53.482;10.238;2022-09-09T20:00:00;10.73;;;6.20;;
3881;SDS011;1956;53.482;10.238;2022-09-09T20:05:02;9.47;;;6.20;;
3881;SDS011;1956;53.482;10.238;2022-09-09T20:10:03;13.50;;;6.27;;
3881;SDS011;1956;53.482;10.238;2022-09-09T20:15:03;10.53;;;6.70;;
3881;SDS011;1956;53.482;10.238;2022-09-09T20:20:04;8.03;;;6.30;;
3881;SDS011;1956;53.482;10.238;2022-09-09T20:25:05;10.33;;;6.30;;
3881;SDS011;1956;53.482;10.238;2022-09-09T20:30:06;13.83;;;6.03;;
3881;SDS011;1956;53.482;10.238;2022-09-09T20:35:07;10.70;;;5.60;;
3881;SDS011;1956;53.482;10.238;2022-09-09T20:40:07;10.90;;;5.60;;
3881;SDS011;1956;53.482;10.238;2022-09-09T20:45:09;7.87;;;5.50;;
3881;SDS011;1956;53.482;10.238;2022-09-09T20:50:15;13.50;;;5.43;;
3881;SDS011;1956;53.482;10.238;2022-09-09T20:55:15;5.60;;;4.97;;
3881;SDS011;1956;53.482;10.238;2022-09-09T21:00:15;8.70;;;5.17;;
3881;SDS011;1956;53.482;10.238;2022-09-09T21:05:16;5.87;;;3.60;;
3881;SDS011;1956;53.482;10.238;2022-09-09T21:10:18;20.80;;;6.33;;
3881;SDS011;1956;53.482;10.238;2022-09-09T21:15:19;14.80;;;6.10;;
3881;SDS011;1956;53.482;10.238;2022-09-09T21:20:19;29.23;;;7.43;;
3881;SDS011;1956;53.482;10.238;2022-09-09T21:25:20;12.13;;;6.80;;
3881;SDS011;1956;53.482;10.238;2022-09-09T21:30:21;15.00;;;6.50;;
3881;SDS011;1956;53.482;10.238;2022-09-09T21:35:23;17.03;;;7.90;;
3881;SDS011;1956;53.482;10.238;2022-09-09T21:40:24;12.57;;;7.00;;
3881;SDS011;1956;53.482;10.238;2022-09-09T21:45:25;11.43;;;7.27;;
3881;SDS011;1956;53.482;10.238;2022-09-09T21:50:27;14.10;;;7.77;;
3881;SDS011;1956;53.482;10.238;2022-09-09T21:55:27;11.50;;;6.60;;
3881;SDS011;1956;53.482;10.238;2022-09-09T22:00:28;20.33;;;6.63;;
3881;SDS011;1956;53.482;10.238;2022-09-09T22:05:29;18.27;;;6.33;;
3881;SDS011;1956;53.482;10.238;2022-09-09T22:10:30;9.67;;;5.57;;
3881;SDS011;1956;53.482;10.238;2022-09-09T22:15:30;10.20;;;5.53;;
3881;SDS011;1956;53.482;10.238;2022-09-09T22:20:32;16.37;;;6.50;;
3881;SDS011;1956;53.482;10.238;2022-09-09T22:25:34;8.60;;;6.17;;
3881;SDS011;1956;53.482;10.238;2022-09-09T22:30:35;18.33;;;6.30;;
3881;SDS011;1956;53.482;10.238;2022-09-09T22:35:40;14.40;;;5.90;;
3881;SDS011;1956;53.482;10.238;2022-09-09T22:40:41;13.40;;;6.50;;
3881;SDS011;1956;53.482;10.238;2022-09-09T22:45:42;13.70;;;5.20;;
3881;SDS011;1956;53.482;10.238;2022-09-09T22:50:42;13.90;;;5.37;;
3881;SDS011;1956;53.482;10.238;2022-09-09T22:55:57;7.63;;;5.27;;
3881;SDS011;1956;53.482;10.238;2022-09-09T23:00:59;4.90;;;4.50;;
3881;SDS011;1956;53.482;10.238;2022-09-09T23:06:00;9.10;;;5.33;;
3881;SDS011;1956;53.482;10.238;2022-09-09T23:11:07;6.20;;;4.50;;
3881;SDS011;1956;53.482;10.238;2022-09-09T23:16:14;6.70;;;4.77;;
3881;SDS011;1956;53.482;10.238;2022-09-09T23:21:15;7.50;;;5.13;;
3881;SDS011;1956;53.482;10.238;2022-09-09T23:26:18;13.00;;;5.07;;
3881;SDS011;1956;53.482;10.238;2022-09-09T23:31:20;9.53;;;5.20;;
3881;SDS011;1956;53.482;10.238;2022-09-09T23:36:22;5.17;;;4.73;;
3881;SDS011;1956;53.482;10.238;2022-09-09T23:41:24;17.13;;;4.43;;
3881;SDS011;1956;53.482;10.238;2022-09-09T23:46:25;10.40;;;5.53;;
3881;SDS011;1956;53.482;10.238;2022-09-09T23:51:27;11.20;;;4.70;;
3881;SDS011;1956;53.482;10.238;2022-09-09T23:56:31;7.07;;;5.17;;
